createdAt,value
2017-01-26T16:35:17.822Z,91.05
2017-01-26T16:35:58.281Z,90.86
2017-01-26T16:36:38.768Z,90.77
2017-01-26T16:37:19.278Z,90.58
2017-01-26T16:37:59.745Z,90.77
2017-01-26T16:38:40.274Z,90.58
2017-01-26T16:39:20.733Z,90.58
2017-01-26T16:40:01.228Z,90.96
2017-01-26T16:40:41.728Z,91.24
2017-01-26T16:41:22.187Z,90.68
2017-01-26T16:42:02.668Z,91.05
2017-01-26T16:42:43.181Z,90.77
2017-01-26T16:43:23.637Z,91.15
2017-01-26T16:44:04.137Z,90.77
2017-01-26T16:44:44.614Z,91.15
2017-01-26T16:45:25.091Z,90.96
2017-01-26T16:46:05.582Z,91.05
2017-01-26T16:46:46.053Z,91.15
2017-01-26T16:47:26.556Z,91.24
2017-01-26T16:48:07.011Z,91.24
2017-01-26T16:48:47.487Z,90.96
2017-01-26T16:49:27.972Z,91.15
2017-01-26T16:50:08.503Z,91.05
2017-01-26T16:50:48.985Z,90.86
2017-01-26T16:51:29.447Z,90.86
2017-01-26T16:52:09.974Z,91.05
2017-01-26T16:52:50.417Z,90.86
2017-01-26T16:53:30.917Z,91.05
2017-01-26T16:54:11.410Z,91.05
2017-01-26T16:54:51.911Z,91.05
2017-01-26T16:55:32.361Z,91.05
2017-01-26T16:56:12.844Z,91.24
2017-01-26T16:56:53.327Z,91.15
2017-01-26T16:57:33.836Z,91.34
2017-01-26T16:58:14.307Z,91.15
2017-01-26T16:58:54.798Z,91.34
2017-01-26T16:59:35.337Z,91.24
2017-01-26T17:00:15.823Z,91.15
2017-01-26T17:00:56.283Z,91.15
2017-01-26T17:01:36.781Z,91.43
2017-01-26T17:02:17.262Z,91.34
2017-01-26T17:02:57.740Z,91.34
2017-01-26T17:03:38.213Z,91.24
2017-01-26T17:04:18.661Z,91.15
2017-01-26T17:04:59.197Z,91.34
2017-01-26T17:05:39.655Z,91.24
2017-01-26T17:06:20.121Z,91.34
2017-01-26T17:07:00.591Z,91.05
2017-01-26T17:07:41.098Z,91.05
2017-01-26T17:09:40.251Z,91.05
2017-01-26T17:10:20.713Z,91.24
2017-01-26T17:11:01.171Z,91.15
2017-01-26T17:11:41.640Z,91.24
2017-01-26T17:12:22.141Z,91.34
2017-01-26T17:13:02.590Z,91.34
2017-01-26T17:13:43.075Z,91.15
2017-01-26T17:14:23.607Z,91.15
2017-01-26T17:15:04.081Z,90.96
2017-01-26T17:15:44.554Z,90.96
2017-01-26T17:16:25.061Z,91.05
2017-01-26T17:17:05.536Z,91.72
2017-01-26T17:17:46.041Z,91.72
2017-01-26T17:18:26.516Z,91.15
2017-01-26T17:19:06.995Z,91.72
2017-01-26T17:19:47.552Z,91.62
2017-01-26T17:20:27.992Z,91.53
2017-01-26T17:21:08.464Z,91.72
2017-01-26T17:21:48.957Z,91.43
2017-01-26T17:22:29.438Z,91.72
2017-01-26T17:23:09.933Z,91.72
2017-01-26T17:23:50.439Z,91.72
2017-01-26T17:24:30.938Z,91.53
2017-01-26T17:25:11.436Z,91.91
2017-01-26T17:25:51.925Z,91.72
2017-01-26T17:26:32.474Z,91.72
2017-01-26T17:27:12.943Z,91.62
2017-01-26T17:27:53.431Z,91.62
2017-01-26T17:28:33.956Z,91.72
2017-01-26T17:29:14.472Z,91.53
2017-01-26T17:29:54.942Z,91.62
2017-01-26T17:30:35.453Z,91.72
2017-01-26T17:31:15.964Z,91.62
2017-01-26T17:31:56.438Z,91.62
2017-01-26T17:32:36.936Z,91.53
2017-01-26T17:33:17.415Z,91.62
2017-01-26T17:33:57.910Z,91.53
2017-01-26T17:34:38.403Z,91.62
2017-01-26T17:35:18.888Z,91.72
2017-01-26T17:35:59.395Z,91.72
2017-01-26T17:36:39.866Z,91.53
2017-01-26T17:37:20.412Z,91.62
2017-01-26T17:38:00.919Z,91.72
2017-01-26T17:38:41.403Z,90.96
2017-01-26T17:39:21.945Z,91.15
2017-01-26T17:40:02.428Z,91.05
2017-01-26T17:40:42.884Z,91.15
2017-01-26T17:41:23.422Z,91.15
2017-01-26T17:42:03.897Z,91.24
2017-01-26T17:42:44.387Z,91.05
2017-01-26T17:43:24.864Z,91.24
2017-01-26T17:44:05.384Z,91.34
2017-01-26T17:44:46.622Z,91.43
2017-01-26T17:45:27.098Z,91.34
2017-01-26T17:46:07.578Z,91.24
2017-01-26T17:46:48.074Z,91.05
2017-01-26T17:47:29.295Z,91.24
2017-01-26T17:48:09.750Z,90.86
2017-01-26T17:48:50.260Z,90.68
2017-01-26T17:49:30.726Z,90.77
2017-01-26T17:50:11.192Z,90.68
2017-01-26T17:50:51.697Z,91.15
2017-01-26T17:51:32.175Z,91.05
2017-01-26T17:52:12.651Z,90.86
2017-01-26T17:52:53.147Z,90.77
2017-01-26T17:53:33.630Z,91.05
2017-01-26T17:54:14.133Z,90.96
2017-01-26T17:54:54.620Z,90.86
2017-01-26T17:55:35.089Z,91.15
2017-01-26T17:56:15.566Z,91.05
2017-01-26T17:56:56.302Z,91.34
2017-01-26T17:57:36.833Z,91.24
2017-01-26T17:58:17.305Z,90.68
2017-01-26T17:58:57.829Z,90.86
2017-01-26T17:59:38.292Z,90.58
2017-01-26T18:00:18.806Z,90.77
2017-01-26T18:00:59.322Z,91.34
2017-01-26T18:01:39.806Z,91.05
2017-01-26T18:02:20.294Z,90.86
2017-01-26T18:03:00.762Z,91.24
2017-01-26T18:03:41.276Z,90.58
2017-01-26T18:04:21.725Z,90.58
2017-01-26T18:05:02.239Z,90.68
2017-01-26T18:05:42.717Z,90.68
2017-01-26T18:06:23.208Z,90.77
2017-01-26T18:07:03.665Z,90.77
2017-01-26T18:07:44.157Z,90.68
2017-01-26T18:08:24.645Z,90.77
2017-01-26T18:09:05.139Z,90.77
2017-01-26T18:09:45.711Z,90.77
2017-01-26T18:10:26.190Z,90.68
2017-01-26T18:11:06.662Z,90.58
2017-01-26T18:11:47.168Z,90.77
2017-01-26T18:12:27.659Z,90.77
2017-01-26T18:13:08.150Z,90.68
2017-01-26T18:13:48.612Z,90.58
2017-01-26T18:14:29.098Z,90.58
2017-01-26T18:15:09.584Z,90.96
2017-01-26T18:15:50.076Z,90.96
2017-01-26T18:16:30.558Z,90.58
2017-01-26T18:17:11.033Z,90.58
2017-01-26T18:17:51.512Z,90.58
2017-01-26T18:18:32.927Z,90.86
2017-01-26T18:19:13.425Z,90.86
2017-01-26T18:19:55.527Z,90.86
2017-01-26T18:20:36.698Z,90.2
2017-01-26T18:21:17.920Z,90.86
2017-01-26T18:21:59.916Z,90.2
2017-01-26T18:22:40.424Z,90.49
2017-01-26T18:23:21.768Z,90.49
2017-01-26T18:24:02.274Z,90.58
2017-01-26T18:24:45.419Z,90.58
2017-01-26T18:25:29.454Z,90.68
2017-01-26T18:26:10.715Z,90.58
2017-01-26T18:26:52.515Z,90.39
2017-01-26T18:27:33.518Z,90.49
2017-01-26T18:28:14.033Z,90.39
2017-01-26T18:28:55.097Z,90.68
2017-01-26T18:29:35.596Z,90.77
2017-01-26T18:30:16.780Z,90.68
2017-01-26T18:30:57.275Z,90.58
2017-01-26T18:31:38.275Z,90.77
2017-01-26T18:32:19.600Z,90.58
2017-01-26T18:33:00.609Z,90.58
2017-01-26T18:33:44.537Z,90.49
2017-01-26T18:34:25.796Z,90.77
2017-01-26T18:35:06.244Z,90.58
2017-01-26T18:35:50.934Z,90.68
2017-01-26T18:36:31.943Z,90.68
2017-01-26T18:37:12.413Z,90.77
2017-01-26T18:37:53.712Z,90.49
2017-01-26T18:38:34.202Z,90.77
2017-01-26T18:39:15.419Z,90.2
2017-01-26T18:39:56.524Z,90.68
2017-01-26T18:40:36.989Z,90.58
2017-01-26T18:41:19.183Z,90.58
2017-01-26T18:42:00.416Z,90.77
2017-01-26T18:42:40.941Z,90.77
2017-01-26T18:43:23.020Z,90.39
2017-01-26T18:44:03.522Z,90.11
2017-01-26T18:44:44.706Z,90.58
2017-01-26T18:45:25.691Z,90.11
2017-01-26T18:46:09.541Z,90.3
2017-01-26T18:46:51.910Z,90.11
2017-01-26T18:47:33.032Z,90.2
2017-01-26T18:48:13.524Z,90.2
2017-01-26T18:48:54.590Z,90.3
2017-01-26T18:50:42.447Z,90.77
2017-01-26T18:51:23.591Z,90.11
2017-01-26T18:52:06.081Z,90.2
2017-01-26T18:52:47.403Z,90.11
2017-01-26T18:53:28.908Z,90.11
2017-01-26T18:54:09.999Z,90.2
2017-01-26T18:54:52.447Z,90.11
2017-01-26T18:55:34.217Z,90.2
2017-01-26T18:56:14.697Z,90.2
2017-01-26T18:56:56.072Z,90.01
2017-01-26T18:57:37.907Z,90.2
2017-01-26T18:58:18.899Z,90.2
2017-01-26T18:59:00.004Z,90.96
2017-01-26T18:59:45.345Z,90.39
2017-01-26T19:00:26.423Z,90.2
2017-01-26T19:01:08.302Z,90.68
2017-01-26T19:01:48.809Z,90.77
2017-01-26T19:02:29.298Z,90.68
2017-01-26T19:03:10.314Z,90.77
2017-01-26T19:03:51.314Z,90.68
2017-01-26T19:04:31.851Z,90.68
2017-01-26T19:05:14.841Z,90.58
2017-01-26T19:05:58.900Z,90.77
2017-01-26T19:06:39.982Z,90.77
2017-01-26T19:07:21.083Z,90.58
2017-01-26T19:08:02.074Z,90.49
2017-01-26T19:08:45.720Z,90.68
2017-01-26T19:09:26.201Z,90.68
2017-01-26T19:10:06.676Z,90.68
2017-01-26T19:10:51.909Z,90.68
2017-01-26T19:11:32.399Z,90.49
2017-01-26T19:12:13.734Z,90.77
2017-01-26T19:12:54.227Z,90.39
2017-01-26T19:13:34.705Z,90.68
2017-01-26T19:14:16.091Z,90.77
2017-01-26T19:14:56.609Z,90.77
2017-01-26T19:15:39.722Z,90.49
2017-01-26T19:16:25.709Z,90.68
2017-01-26T19:17:08.724Z,90.54
2017-01-26T19:17:49.220Z,90.58
2017-01-26T19:18:30.380Z,90.68
2017-01-26T19:19:11.392Z,90.77
2017-01-26T19:19:52.636Z,90.3
2017-01-26T19:20:36.229Z,90.2
2017-01-26T19:21:19.395Z,90.39
2017-01-26T19:22:00.764Z,90.49
2017-01-26T19:22:41.120Z,90.49
2017-01-26T19:23:23.317Z,90.77
2017-01-26T19:24:03.802Z,90.3
2017-01-26T19:24:45.031Z,90.2
2017-01-26T19:25:27.397Z,90.2
2017-01-26T19:26:08.474Z,90.82
2017-01-26T19:26:49.839Z,90.44
2017-01-26T19:27:30.287Z,90.49
2017-01-26T19:28:10.794Z,90.82
2017-01-26T19:28:51.251Z,90.39
2017-01-26T19:29:31.736Z,90.49
2017-01-26T19:30:13.824Z,90.44
2017-01-26T19:30:55.821Z,90.49
2017-01-26T19:31:36.297Z,90.44
2017-01-26T19:32:21.719Z,90.63
2017-01-26T19:33:03.031Z,90.63
2017-01-26T19:33:44.321Z,90.25
2017-01-26T19:34:27.304Z,90.25
2017-01-26T19:35:08.319Z,90.73
2017-01-26T19:35:50.602Z,90.91
2017-01-26T19:36:31.111Z,90.73
2017-01-26T19:37:11.601Z,90.73
2017-01-26T19:37:52.892Z,90.82
2017-01-26T19:38:35.221Z,91.01
2017-01-26T19:39:18.719Z,91.05
2017-01-26T19:40:00.070Z,90.82
2017-01-26T19:40:42.395Z,90.44
2017-01-26T19:41:23.713Z,90.91
2017-01-26T19:42:04.227Z,90.91
2017-01-26T19:42:45.309Z,91.01
2017-01-26T19:43:28.223Z,90.82
2017-01-26T19:44:10.500Z,90.91
2017-01-26T19:44:53.241Z,90.91
2017-01-26T19:45:34.316Z,90.82
2017-01-26T19:46:15.304Z,90.73
2017-01-26T19:46:56.477Z,90.91
2017-01-26T19:47:38.302Z,90.82
2017-01-26T19:48:20.396Z,90.91
2017-01-26T19:49:02.893Z,90.73
2017-01-26T19:49:44.012Z,90.73
2017-01-26T19:50:24.551Z,90.73
2017-01-26T19:51:05.739Z,90.82
2017-01-26T19:51:46.716Z,90.82
2017-01-26T19:52:27.192Z,90.91
2017-01-26T19:53:07.699Z,90.82
2017-01-26T19:53:50.704Z,90.82
2017-01-26T19:54:33.819Z,90.82
2017-01-26T19:55:14.281Z,90.91
2017-01-26T19:55:54.760Z,91.01
2017-01-26T19:56:35.276Z,91.1
2017-01-26T19:57:15.900Z,90.63
2017-01-26T19:57:56.348Z,90.91
2017-01-26T19:58:36.865Z,90.63
2017-01-26T19:59:17.380Z,90.73
2017-01-26T19:59:58.558Z,90.73
2017-01-26T20:00:39.034Z,90.82
2017-01-26T20:01:19.611Z,90.82
2017-01-26T20:02:00.708Z,91.01
2017-01-26T20:02:41.230Z,90.91
2017-01-26T20:03:21.728Z,91.01
2017-01-26T20:04:03.964Z,91.01
2017-01-26T20:04:44.508Z,90.54
2017-01-26T20:05:25.556Z,91.1
2017-01-26T20:06:06.042Z,90.82
2017-01-26T20:06:46.520Z,90.82
2017-01-26T20:07:27.736Z,90.91
2017-01-26T20:08:09.970Z,90.82
2017-01-26T20:08:51.404Z,90.91
2017-01-26T20:09:32.399Z,90.82
2017-01-26T20:10:12.874Z,90.91
2017-01-26T20:10:55.275Z,90.82
2017-01-26T20:11:35.745Z,90.91
2017-01-26T20:12:16.233Z,90.91
2017-01-26T20:12:56.739Z,90.82
2017-01-26T20:13:37.208Z,90.82
2017-01-26T20:14:17.695Z,90.73
2017-01-26T20:14:58.179Z,90.82
2017-01-26T20:15:38.657Z,90.82
2017-01-26T20:16:19.145Z,90.82
2017-01-26T20:17:02.291Z,90.82
2017-01-26T20:17:44.294Z,90.73
2017-01-26T20:18:25.397Z,90.63
2017-01-26T20:19:05.895Z,90.91
2017-01-26T20:19:46.396Z,90.82
2017-01-26T20:20:26.869Z,90.82
2017-01-26T20:21:07.380Z,90.73
2017-01-26T20:21:47.857Z,90.82
2017-01-26T20:22:30.235Z,90.82
2017-01-26T20:23:10.686Z,91.01
2017-01-26T20:23:51.186Z,90.91
2017-01-26T20:24:32.515Z,90.91
2017-01-26T20:25:12.983Z,90.82
2017-01-26T20:25:53.490Z,90.82
2017-01-26T20:26:34.562Z,90.82
2017-01-26T20:27:15.080Z,90.82
2017-01-26T20:27:57.090Z,90.63
2017-01-26T20:28:37.564Z,90.91
2017-01-26T20:29:18.079Z,90.82
2017-01-26T20:29:58.534Z,90.82
2017-01-26T20:30:39.974Z,90.63
2017-01-26T20:31:20.471Z,90.91
2017-01-26T20:32:00.957Z,90.91
2017-01-26T20:32:42.412Z,90.91
2017-01-26T20:33:22.900Z,90.73
2017-01-26T20:34:04.218Z,90.63
2017-01-26T20:34:44.999Z,90.73
2017-01-26T20:35:25.493Z,90.82
2017-01-26T20:36:07.904Z,90.82
2017-01-26T20:36:48.981Z,91.01
2017-01-26T20:37:30.221Z,90.73
2017-01-26T20:38:10.709Z,91.29
2017-01-26T20:38:51.216Z,91.2
2017-01-26T20:39:31.707Z,91.29
2017-01-26T20:40:12.225Z,90.91
2017-01-26T20:40:54.226Z,91.2
2017-01-26T20:41:35.402Z,91.2
2017-01-26T20:42:15.921Z,91.2
2017-01-26T20:42:56.408Z,91.2
2017-01-26T20:43:37.498Z,91.1
2017-01-26T20:44:18.000Z,91.01
2017-01-26T20:44:59.379Z,91.01
2017-01-26T20:45:39.897Z,90.91
2017-01-26T20:46:20.361Z,91.01
2017-01-26T20:47:00.856Z,91.29
2017-01-26T20:47:42.199Z,91.01
2017-01-26T20:48:22.710Z,91.29
2017-01-26T20:49:03.202Z,91.1
2017-01-26T20:49:45.382Z,91.1
2017-01-26T20:50:25.865Z,91.1
2017-01-26T20:51:06.361Z,91.39
2017-01-26T20:51:46.840Z,90.91
2017-01-26T20:52:27.356Z,91.01
2017-01-26T20:53:07.851Z,91.1
2017-01-26T20:53:48.323Z,90.63
2017-01-26T20:54:28.831Z,91.01
2017-01-26T20:55:10.323Z,91.1
2017-01-26T20:55:50.803Z,91.1
2017-01-26T20:56:31.307Z,91.1
2017-01-26T20:57:11.820Z,91.1
2017-01-26T20:57:52.308Z,91.1
2017-01-26T20:58:33.573Z,91.1
2017-01-26T20:59:14.076Z,91.01
2017-01-26T20:59:56.405Z,90.73
2017-01-26T21:00:38.405Z,91.29
2017-01-26T21:01:18.981Z,91.29
2017-01-26T21:01:59.455Z,91.1
2017-01-26T21:02:39.903Z,91.29
2017-01-26T21:03:21.970Z,91.01
2017-01-26T21:04:02.464Z,91.1
2017-01-26T21:04:42.947Z,91.01
2017-01-26T21:05:23.459Z,91.1
2017-01-26T21:06:04.899Z,91.29
2017-01-26T21:06:46.214Z,91.2
2017-01-26T21:07:26.676Z,90.73
2017-01-26T21:08:07.214Z,91.2
2017-01-26T21:08:47.669Z,91.01
2017-01-26T21:09:28.135Z,91.01
2017-01-26T21:10:09.382Z,91.01
2017-01-26T21:10:49.904Z,90.63
2017-01-26T21:11:30.388Z,91.1
2017-01-26T21:12:11.475Z,91.29
2017-01-26T21:12:53.308Z,91.01
2017-01-26T21:13:34.702Z,91.01
2017-01-26T21:14:16.004Z,91.29
2017-01-26T21:14:57.108Z,90.91
2017-01-26T21:15:37.541Z,91.39
2017-01-26T21:16:18.019Z,91.01
2017-01-26T21:16:58.659Z,91.01
2017-01-26T21:17:39.142Z,91.01
2017-01-26T21:18:20.548Z,91.1
2017-01-26T21:19:01.052Z,91.2
2017-01-26T21:19:42.304Z,91.29
2017-01-26T21:20:24.197Z,91.2
2017-01-26T21:21:04.692Z,91.2
2017-01-26T21:21:45.166Z,91.01
2017-01-26T21:22:25.638Z,90.91
2017-01-26T21:23:06.125Z,90.91
2017-01-26T21:23:47.384Z,91.01
2017-01-26T21:24:27.899Z,91.29
2017-01-26T21:25:09.280Z,91.01
2017-01-26T21:25:49.760Z,91.39
2017-01-26T21:26:30.290Z,91.29
2017-01-26T21:27:10.741Z,91.1
2017-01-26T21:27:52.062Z,91.1
2017-01-26T21:28:32.550Z,91.1
2017-01-26T21:29:15.187Z,91.2
2017-01-26T21:29:55.702Z,91.29
2017-01-26T21:30:36.179Z,90.73
2017-01-26T21:31:16.682Z,91.2
2017-01-26T21:31:57.798Z,91.2
2017-01-26T21:32:39.062Z,90.91
2017-01-26T21:33:19.554Z,91.01
2017-01-26T21:34:00.020Z,91.1
2017-01-26T21:34:40.526Z,91.1
2017-01-26T21:35:20.984Z,91.1
2017-01-26T21:36:02.391Z,91.29
2017-01-26T21:36:42.864Z,91.2
2017-01-26T21:37:23.387Z,91.1
2017-01-26T21:38:03.915Z,91.01
2017-01-26T21:46:28.546Z,91.29
2017-01-26T21:47:09.538Z,91.2
2017-01-26T21:47:50.780Z,91.29
2017-01-26T21:48:31.274Z,91.2
2017-01-26T21:49:11.775Z,91.1
2017-01-26T21:49:52.249Z,91.29
2017-01-26T21:50:32.770Z,91.2
2017-01-26T21:51:13.229Z,91.01
2017-01-26T21:51:54.282Z,91.1
2017-01-26T21:52:34.783Z,91.1
2017-01-26T21:53:15.277Z,91.2
2017-01-26T21:53:55.743Z,91.01
2017-01-26T21:54:36.253Z,91.29
2017-01-26T21:55:16.720Z,91.1
2017-01-26T21:55:57.203Z,91.1
2017-01-26T21:56:37.697Z,91.29
2017-01-26T21:57:18.198Z,91.01
2017-01-26T21:57:58.685Z,91.29
2017-01-26T21:58:39.186Z,91.01
2017-01-26T21:59:19.644Z,91.29
2017-01-26T22:00:03.047Z,91.1
2017-01-26T22:00:44.462Z,90.73
2017-01-26T22:01:25.568Z,91.29
2017-01-26T22:02:06.896Z,91.1
2017-01-26T22:02:47.873Z,91.1
2017-01-26T22:03:28.332Z,91.29
2017-01-26T22:04:08.820Z,91.01
2017-01-26T22:04:49.304Z,90.73
2017-01-26T22:05:29.748Z,91.01
2017-01-26T22:06:10.230Z,91.01
2017-01-26T22:06:51.636Z,91.01
2017-01-26T22:07:32.659Z,91.01
2017-01-26T22:08:13.140Z,91.01
2017-01-26T22:08:54.386Z,91.1
2017-01-26T22:09:34.885Z,91.1
2017-01-26T22:10:16.043Z,91.29
2017-01-26T22:10:56.530Z,91.29
2017-01-26T22:11:37.544Z,91.29
2017-01-26T22:12:18.066Z,91.29
2017-01-26T22:12:58.694Z,91.29
2017-01-26T22:13:39.035Z,91.29
2017-01-26T22:14:21.061Z,91.1
2017-01-26T22:15:02.066Z,91.29
2017-01-26T22:15:42.551Z,91.29
2017-01-26T22:16:23.961Z,91.1
2017-01-26T22:17:04.450Z,91.29
2017-01-26T22:17:45.448Z,91.1
2017-01-26T22:18:25.952Z,91.29
2017-01-26T22:19:06.438Z,91.1
2017-01-26T22:19:47.641Z,91.1
2017-01-26T22:20:28.135Z,91.39
2017-01-26T22:21:08.596Z,91.01
2017-01-26T22:21:49.641Z,90.73
2017-01-26T22:22:30.115Z,91.29
2017-01-26T22:23:10.597Z,90.82
2017-01-26T22:23:52.966Z,91.1
2017-01-26T22:24:33.440Z,91.01
2017-01-26T22:25:13.922Z,91.1
2017-01-26T22:25:54.405Z,91.01
2017-01-26T22:26:34.893Z,91.29
2017-01-26T22:27:15.373Z,91.48
2017-01-26T22:27:55.888Z,91.01
2017-01-26T22:28:36.390Z,91.39
2017-01-26T22:29:17.359Z,91.48
2017-01-26T22:29:57.842Z,91.2
2017-01-26T22:30:38.978Z,91.58
2017-01-26T22:31:19.427Z,91.1
2017-01-26T22:31:59.913Z,91.48
2017-01-26T22:32:40.399Z,91.1
2017-01-26T22:33:21.378Z,91.1
2017-01-26T22:34:01.858Z,91.01
2017-01-26T22:34:42.349Z,91.1
2017-01-26T22:35:23.468Z,91.2
2017-01-26T22:36:03.953Z,91.1
2017-01-26T22:36:45.780Z,91.2
2017-01-26T22:37:26.952Z,91.2
2017-01-26T22:38:07.453Z,91.2
2017-01-26T22:38:48.565Z,91.48
2017-01-26T22:39:29.057Z,91.48
2017-01-26T22:40:09.532Z,91.2
2017-01-26T22:40:50.022Z,91.48
2017-01-26T22:41:30.506Z,91.58
2017-01-26T22:42:11.623Z,91.58
2017-01-26T22:42:52.121Z,91.58
2017-01-26T22:43:33.487Z,91.1
2017-01-26T22:44:16.283Z,91.2
2017-01-26T22:44:57.267Z,91.48
2017-01-26T22:45:37.760Z,91.58
2017-01-26T22:46:18.272Z,91.58
2017-01-26T22:46:58.821Z,91.2
2017-01-26T22:47:39.359Z,91.48
2017-01-26T22:48:19.826Z,91.48
2017-01-26T22:49:01.271Z,91.29
2017-01-26T22:49:41.773Z,91.58
2017-01-26T22:50:22.231Z,91.48
2017-01-26T22:51:02.753Z,91.48
2017-01-26T22:51:43.218Z,91.2
2017-01-26T22:52:23.718Z,91.29
2017-01-26T22:53:04.195Z,91.48
2017-01-26T22:53:45.550Z,91.67
2017-01-26T22:54:26.023Z,91.48
2017-01-26T22:55:06.508Z,91.29
2017-01-26T22:55:46.975Z,91.67
2017-01-26T22:56:27.517Z,91.48
2017-01-26T22:57:08.864Z,91.48
2017-01-26T22:57:49.363Z,91.58
2017-01-26T22:58:30.766Z,91.58
2017-01-26T22:59:11.273Z,91.48
2017-01-26T22:59:51.749Z,91.58
2017-01-26T23:00:32.215Z,91.2
2017-01-26T23:01:12.665Z,91.29
2017-01-26T23:01:53.173Z,91.48
2017-01-26T23:02:33.646Z,91.2
2017-01-26T23:03:14.857Z,91.2
2017-01-26T23:03:55.344Z,91.29
2017-01-26T23:04:36.556Z,91.48
2017-01-26T23:05:17.049Z,91.48
2017-01-26T23:05:57.527Z,91.39
2017-01-26T23:06:38.000Z,91.2
2017-01-26T23:07:18.455Z,91.48
2017-01-26T23:07:58.929Z,91.29
2017-01-26T23:08:39.437Z,91.39
2017-01-26T23:09:19.919Z,91.29
2017-01-26T23:10:00.402Z,91.39
2017-01-26T23:10:40.876Z,91.48
2017-01-26T23:11:21.333Z,91.39
2017-01-26T23:12:01.840Z,91.39
2017-01-26T23:12:42.342Z,91.39
2017-01-26T23:13:22.842Z,91.39
2017-01-26T23:14:03.956Z,91.39
2017-01-26T23:14:44.441Z,91.39
2017-01-26T23:15:25.529Z,91.2
2017-01-26T23:16:06.015Z,91.48
2017-01-26T23:16:46.484Z,91.39
2017-01-26T23:17:26.969Z,91.29
2017-01-26T23:18:07.449Z,91.48
2017-01-26T23:18:47.929Z,91.39
2017-01-26T23:19:28.418Z,91.29
2017-01-26T23:20:08.895Z,91.29
2017-01-26T23:20:49.381Z,91.48
2017-01-26T23:21:29.839Z,91.29
2017-01-26T23:22:10.321Z,91.39
2017-01-26T23:22:50.886Z,91.29
2017-01-26T23:23:31.360Z,91.48
2017-01-26T23:24:11.810Z,91.39
2017-01-26T23:24:53.109Z,91.39
2017-01-26T23:25:33.602Z,91.48
2017-01-26T23:26:14.092Z,91.39
2017-01-26T23:26:54.568Z,91.29
2017-01-26T23:27:35.047Z,91.29
2017-01-26T23:28:15.527Z,91.1
2017-01-26T23:28:56.001Z,91.2
2017-01-26T23:29:36.515Z,91.39
2017-01-26T23:30:16.961Z,91.2
2017-01-26T23:30:57.451Z,91.29
2017-01-26T23:31:37.953Z,91.39
2017-01-26T23:32:18.452Z,91.1
2017-01-26T23:32:58.916Z,91.1
2017-01-26T23:33:39.371Z,91.29
2017-01-26T23:34:19.874Z,91.29
2017-01-26T23:35:00.373Z,91.2
2017-01-26T23:35:40.856Z,91.29
2017-01-26T23:36:21.362Z,91.39
2017-01-26T23:37:01.841Z,91.39
2017-01-26T23:37:42.368Z,91.29
2017-01-26T23:38:23.365Z,91.39
2017-01-26T23:39:03.912Z,91.29
2017-01-26T23:39:44.397Z,91.39
2017-01-26T23:40:24.868Z,91.29
2017-01-26T23:41:05.368Z,91.29
2017-01-26T23:41:45.828Z,91.2
2017-01-26T23:42:26.318Z,91.29
2017-01-26T23:43:06.812Z,91.39
2017-01-26T23:43:47.299Z,91.29
2017-01-26T23:44:27.779Z,91.2
2017-01-26T23:45:08.248Z,91.2
2017-01-26T23:45:48.692Z,91.39
2017-01-26T23:46:29.187Z,91.01
2017-01-26T23:47:09.638Z,91.01
2017-01-26T23:47:50.129Z,91.1
2017-01-26T23:48:30.637Z,91.01
2017-01-26T23:49:11.119Z,91.01
2017-01-26T23:49:52.532Z,91.2
2017-01-26T23:50:33.007Z,91.1
2017-01-26T23:51:13.494Z,91.39
2017-01-26T23:51:53.962Z,91.1
2017-01-26T23:52:34.451Z,91.39
2017-01-26T23:53:14.943Z,91.01
2017-01-26T23:53:55.424Z,91.01
2017-01-26T23:54:35.950Z,91.86
2017-01-26T23:55:16.449Z,91.86
2017-01-26T23:55:56.899Z,91.2
2017-01-26T23:56:37.401Z,92.05
2017-01-26T23:57:18.600Z,91.1
2017-01-26T23:57:59.120Z,91.58
2017-01-26T23:58:39.588Z,92.05
2017-01-26T23:59:20.068Z,91.96
